sensor_id;sensor_type;location;lat;lon;timestamp;P1;durP1;ratioP1;P2;durP2;ratioP2
69523;SDS011;56723;42.694;23.286;2023-04-03T00:00:54;4.90;;;1.60;;
69523;SDS011;56723;42.694;23.286;2023-04-03T00:03:22;3.40;;;1.83;;
69523;SDS011;56723;42.694;23.286;2023-04-03T00:05:49;3.07;;;1.17;;
69523;SDS011;56723;42.694;23.286;2023-04-03T00:08:16;3.07;;;1.33;;
69523;SDS011;56723;42.694;23.286;2023-04-03T00:10:43;3.40;;;1.30;;
69523;SDS011;56723;42.694;23.286;2023-04-03T00:13:10;3.40;;;1.17;;
69523;SDS011;56723;42.694;23.286;2023-04-03T00:15:38;2.83;;;1.37;;
69523;SDS011;56723;42.694;23.286;2023-04-03T00:18:06;3.17;;;1.33;;
69523;SDS011;56723;42.694;23.286;2023-04-03T00:20:33;2.13;;;1.03;;
69523;SDS011;56723;42.694;23.286;2023-04-03T00:23:01;3.87;;;1.67;;
69523;SDS011;56723;42.694;23.286;2023-04-03T00:25:28;3.07;;;1.13;;
69523;SDS011;56723;42.694;23.286;2023-04-03T00:27:56;2.13;;;0.80;;
69523;SDS011;56723;42.694;23.286;2023-04-03T00:30:23;2.10;;;1.17;;
69523;SDS011;56723;42.694;23.286;2023-04-03T00:32:51;3.50;;;0.60;;
69523;SDS011;56723;42.694;23.286;2023-04-03T00:35:19;2.25;;;0.63;;
69523;SDS011;56723;42.694;23.286;2023-04-03T00:37:48;2.95;;;1.02;;
69523;SDS011;56723;42.694;23.286;2023-04-03T00:40:18;1.70;;;1.00;;
69523;SDS011;56723;42.694;23.286;2023-04-03T00:42:46;2.43;;;1.10;;
69523;SDS011;56723;42.694;23.286;2023-04-03T00:47:41;3.87;;;1.27;;
69523;SDS011;56723;42.694;23.286;2023-04-03T00:50:09;2.87;;;1.40;;
69523;SDS011;56723;42.694;23.286;2023-04-03T00:52:36;4.77;;;2.40;;
69523;SDS011;56723;42.694;23.286;2023-04-03T00:55:05;4.43;;;1.80;;
69523;SDS011;56723;42.694;23.286;2023-04-03T00:57:35;6.53;;;2.60;;
69523;SDS011;56723;42.694;23.286;2023-04-03T01:00:04;5.00;;;2.80;;
69523;SDS011;56723;42.694;23.286;2023-04-03T01:02:35;7.20;;;3.20;;
69523;SDS011;56723;42.694;23.286;2023-04-03T01:05:04;7.60;;;2.67;;
69523;SDS011;56723;42.694;23.286;2023-04-03T01:07:31;6.80;;;2.53;;
69523;SDS011;56723;42.694;23.286;2023-04-03T01:10:04;7.30;;;2.72;;
69523;SDS011;56723;42.694;23.286;2023-04-03T01:12:34;6.17;;;2.50;;
69523;SDS011;56723;42.694;23.286;2023-04-03T01:15:04;5.37;;;3.03;;
69523;SDS011;56723;42.694;23.286;2023-04-03T01:17:37;4.60;;;2.77;;
69523;SDS011;56723;42.694;23.286;2023-04-03T01:25:32;7.47;;;3.00;;
69523;SDS011;56723;42.694;23.286;2023-04-03T01:28:00;6.63;;;3.67;;
69523;SDS011;56723;42.694;23.286;2023-04-03T01:30:30;6.93;;;4.33;;
69523;SDS011;56723;42.694;23.286;2023-04-03T01:33:01;8.43;;;3.73;;
69523;SDS011;56723;42.694;23.286;2023-04-03T01:35:29;8.60;;;4.47;;
69523;SDS011;56723;42.694;23.286;2023-04-03T01:37:56;5.50;;;3.07;;
69523;SDS011;56723;42.694;23.286;2023-04-03T01:40:24;6.00;;;2.70;;
69523;SDS011;56723;42.694;23.286;2023-04-03T01:42:51;5.70;;;2.70;;
69523;SDS011;56723;42.694;23.286;2023-04-03T01:45:18;5.97;;;3.03;;
69523;SDS011;56723;42.694;23.286;2023-04-03T01:47:45;7.27;;;3.27;;
69523;SDS011;56723;42.694;23.286;2023-04-03T01:50:12;4.67;;;2.53;;
69523;SDS011;56723;42.694;23.286;2023-04-03T01:52:39;4.63;;;2.23;;
69523;SDS011;56723;42.694;23.286;2023-04-03T01:55:07;4.87;;;2.40;;
69523;SDS011;56723;42.694;23.286;2023-04-03T01:57:34;5.83;;;2.37;;
69523;SDS011;56723;42.694;23.286;2023-04-03T02:00:02;6.83;;;3.47;;
69523;SDS011;56723;42.694;23.286;2023-04-03T02:02:38;5.43;;;3.40;;
69523;SDS011;56723;42.694;23.286;2023-04-03T02:05:05;8.73;;;4.13;;
69523;SDS011;56723;42.694;23.286;2023-04-03T02:07:33;5.73;;;3.23;;
69523;SDS011;56723;42.694;23.286;2023-04-03T02:10:00;5.47;;;3.13;;
69523;SDS011;56723;42.694;23.286;2023-04-03T02:12:27;7.87;;;3.60;;
69523;SDS011;56723;42.694;23.286;2023-04-03T02:14:54;9.13;;;3.37;;
69523;SDS011;56723;42.694;23.286;2023-04-03T02:17:21;7.37;;;3.27;;
69523;SDS011;56723;42.694;23.286;2023-04-03T02:19:48;6.53;;;3.77;;
69523;SDS011;56723;42.694;23.286;2023-04-03T02:22:16;4.93;;;2.93;;
69523;SDS011;56723;42.694;23.286;2023-04-03T02:24:43;7.10;;;3.10;;
69523;SDS011;56723;42.694;23.286;2023-04-03T02:27:11;5.80;;;3.57;;
69523;SDS011;56723;42.694;23.286;2023-04-03T02:29:38;8.53;;;5.07;;
69523;SDS011;56723;42.694;23.286;2023-04-03T02:32:05;6.10;;;3.67;;
69523;SDS011;56723;42.694;23.286;2023-04-03T02:34:33;6.20;;;3.43;;
69523;SDS011;56723;42.694;23.286;2023-04-03T02:37:01;7.00;;;3.47;;
69523;SDS011;56723;42.694;23.286;2023-04-03T02:39:28;5.23;;;3.20;;
69523;SDS011;56723;42.694;23.286;2023-04-03T02:41:57;7.60;;;3.35;;
69523;SDS011;56723;42.694;23.286;2023-04-03T02:44:26;6.90;;;3.40;;
69523;SDS011;56723;42.694;23.286;2023-04-03T02:46:53;6.67;;;2.87;;
69523;SDS011;56723;42.694;23.286;2023-04-03T02:49:20;6.73;;;3.23;;
69523;SDS011;56723;42.694;23.286;2023-04-03T02:51:47;8.63;;;3.30;;
69523;SDS011;56723;42.694;23.286;2023-04-03T02:54:14;8.57;;;4.73;;
69523;SDS011;56723;42.694;23.286;2023-04-03T02:56:46;9.93;;;4.50;;
69523;SDS011;56723;42.694;23.286;2023-04-03T02:59:13;11.87;;;5.20;;
69523;SDS011;56723;42.694;23.286;2023-04-03T03:01:41;7.13;;;4.73;;
69523;SDS011;56723;42.694;23.286;2023-04-03T03:04:08;7.73;;;3.90;;
69523;SDS011;56723;42.694;23.286;2023-04-03T03:06:35;10.20;;;5.50;;
69523;SDS011;56723;42.694;23.286;2023-04-03T03:09:02;10.93;;;4.70;;
69523;SDS011;56723;42.694;23.286;2023-04-03T03:11:30;8.73;;;4.33;;
69523;SDS011;56723;42.694;23.286;2023-04-03T03:13:58;9.50;;;4.53;;
69523;SDS011;56723;42.694;23.286;2023-04-03T03:16:25;10.30;;;4.43;;
69523;SDS011;56723;42.694;23.286;2023-04-03T03:18:53;9.87;;;4.67;;
69523;SDS011;56723;42.694;23.286;2023-04-03T03:21:20;9.43;;;4.70;;
69523;SDS011;56723;42.694;23.286;2023-04-03T03:23:47;9.50;;;4.87;;
69523;SDS011;56723;42.694;23.286;2023-04-03T03:26:14;6.90;;;4.33;;
69523;SDS011;56723;42.694;23.286;2023-04-03T03:28:41;8.80;;;4.53;;
69523;SDS011;56723;42.694;23.286;2023-04-03T03:31:10;8.95;;;4.50;;
69523;SDS011;56723;42.694;23.286;2023-04-03T03:33:39;8.75;;;4.25;;
69523;SDS011;56723;42.694;23.286;2023-04-03T03:36:06;13.47;;;5.20;;
69523;SDS011;56723;42.694;23.286;2023-04-03T03:38:35;13.20;;;5.30;;
69523;SDS011;56723;42.694;23.286;2023-04-03T03:41:02;13.60;;;6.03;;
69523;SDS011;56723;42.694;23.286;2023-04-03T03:43:32;12.93;;;5.67;;
69523;SDS011;56723;42.694;23.286;2023-04-03T03:45:59;18.97;;;6.07;;
69523;SDS011;56723;42.694;23.286;2023-04-03T03:48:27;13.57;;;5.80;;
69523;SDS011;56723;42.694;23.286;2023-04-03T03:50:55;17.03;;;6.43;;
69523;SDS011;56723;42.694;23.286;2023-04-03T03:53:26;15.33;;;6.70;;
69523;SDS011;56723;42.694;23.286;2023-04-03T03:55:57;13.40;;;7.80;;
69523;SDS011;56723;42.694;23.286;2023-04-03T03:58:26;19.70;;;8.27;;
69523;SDS011;56723;42.694;23.286;2023-04-03T04:00:53;21.00;;;10.13;;
69523;SDS011;56723;42.694;23.286;2023-04-03T04:45:29;31.87;;;20.80;;
69523;SDS011;56723;42.694;23.286;2023-04-03T04:47:57;36.43;;;21.33;;
69523;SDS011;56723;42.694;23.286;2023-04-03T04:50:25;29.07;;;19.50;;
69523;SDS011;56723;42.694;23.286;2023-04-03T04:52:53;26.97;;;17.83;;
69523;SDS011;56723;42.694;23.286;2023-04-03T04:55:20;33.80;;;20.07;;
69523;SDS011;56723;42.694;23.286;2023-04-03T04:57:48;31.70;;;21.90;;
69523;SDS011;56723;42.694;23.286;2023-04-03T05:00:15;33.33;;;20.60;;
69523;SDS011;56723;42.694;23.286;2023-04-03T05:02:43;28.97;;;19.20;;
69523;SDS011;56723;42.694;23.286;2023-04-03T05:05:10;24.33;;;15.10;;
69523;SDS011;56723;42.694;23.286;2023-04-03T05:07:38;20.57;;;13.43;;
69523;SDS011;56723;42.694;23.286;2023-04-03T05:10:06;19.37;;;11.73;;
69523;SDS011;56723;42.694;23.286;2023-04-03T05:12:33;21.43;;;11.97;;
69523;SDS011;56723;42.694;23.286;2023-04-03T05:15:03;17.50;;;11.82;;
69523;SDS011;56723;42.694;23.286;2023-04-03T05:17:32;16.60;;;10.60;;
69523;SDS011;56723;42.694;23.286;2023-04-03T05:19:59;16.87;;;9.80;;
69523;SDS011;56723;42.694;23.286;2023-04-03T05:22:27;14.80;;;8.73;;
69523;SDS011;56723;42.694;23.286;2023-04-03T05:24:59;21.73;;;12.33;;
69523;SDS011;56723;42.694;23.286;2023-04-03T05:27:27;20.40;;;13.17;;
69523;SDS011;56723;42.694;23.286;2023-04-03T05:29:58;27.73;;;16.07;;
69523;SDS011;56723;42.694;23.286;2023-04-03T05:32:26;22.17;;;13.57;;
69523;SDS011;56723;42.694;23.286;2023-04-03T05:35:10;28.50;;;15.83;;
69523;SDS011;56723;42.694;23.286;2023-04-03T05:37:39;34.35;;;13.88;;
69523;SDS011;56723;42.694;23.286;2023-04-03T05:40:08;14.23;;;8.63;;
69523;SDS011;56723;42.694;23.286;2023-04-03T05:42:38;10.80;;;6.30;;
69523;SDS011;56723;42.694;23.286;2023-04-03T05:45:06;12.53;;;5.63;;
69523;SDS011;56723;42.694;23.286;2023-04-03T05:47:33;8.17;;;4.90;;
69523;SDS011;56723;42.694;23.286;2023-04-03T05:50:00;13.07;;;6.73;;
69523;SDS011;56723;42.694;23.286;2023-04-03T05:52:29;12.97;;;7.17;;
69523;SDS011;56723;42.694;23.286;2023-04-03T05:54:58;15.37;;;6.97;;
69523;SDS011;56723;42.694;23.286;2023-04-03T05:57:28;13.17;;;7.60;;
69523;SDS011;56723;42.694;23.286;2023-04-03T05:59:55;17.40;;;9.33;;
69523;SDS011;56723;42.694;23.286;2023-04-03T06:02:24;21.33;;;11.33;;
69523;SDS011;56723;42.694;23.286;2023-04-03T06:04:53;19.00;;;10.53;;
69523;SDS011;56723;42.694;23.286;2023-04-03T06:07:22;20.80;;;9.87;;
69523;SDS011;56723;42.694;23.286;2023-04-03T06:09:54;17.30;;;9.27;;
69523;SDS011;56723;42.694;23.286;2023-04-03T06:12:22;21.60;;;10.80;;
69523;SDS011;56723;42.694;23.286;2023-04-03T06:14:50;15.33;;;8.60;;
69523;SDS011;56723;42.694;23.286;2023-04-03T06:17:17;17.60;;;9.50;;
69523;SDS011;56723;42.694;23.286;2023-04-03T06:19:46;18.57;;;8.43;;
69523;SDS011;56723;42.694;23.286;2023-04-03T06:22:14;16.80;;;8.13;;
69523;SDS011;56723;42.694;23.286;2023-04-03T06:24:48;17.67;;;8.30;;
69523;SDS011;56723;42.694;23.286;2023-04-03T06:27:28;18.50;;;9.13;;
69523;SDS011;56723;42.694;23.286;2023-04-03T06:29:55;19.33;;;7.33;;
69523;SDS011;56723;42.694;23.286;2023-04-03T06:32:22;13.87;;;8.10;;
69523;SDS011;56723;42.694;23.286;2023-04-03T06:34:49;15.23;;;8.07;;
69523;SDS011;56723;42.694;23.286;2023-04-03T06:37:17;15.70;;;8.97;;
69523;SDS011;56723;42.694;23.286;2023-04-03T06:39:46;15.70;;;10.27;;
69523;SDS011;56723;42.694;23.286;2023-04-03T06:42:14;13.93;;;9.10;;
69523;SDS011;56723;42.694;23.286;2023-04-03T06:44:52;21.27;;;11.40;;
69523;SDS011;56723;42.694;23.286;2023-04-03T06:47:19;16.50;;;10.33;;
69523;SDS011;56723;42.694;23.286;2023-04-03T06:49:45;19.83;;;11.10;;
69523;SDS011;56723;42.694;23.286;2023-04-03T06:52:13;18.27;;;10.50;;
69523;SDS011;56723;42.694;23.286;2023-04-03T06:54:40;20.57;;;10.40;;
69523;SDS011;56723;42.694;23.286;2023-04-03T06:57:07;21.53;;;9.37;;
69523;SDS011;56723;42.694;23.286;2023-04-03T06:59:35;18.00;;;9.73;;
69523;SDS011;56723;42.694;23.286;2023-04-03T07:02:03;23.23;;;11.17;;
69523;SDS011;56723;42.694;23.286;2023-04-03T07:04:30;21.87;;;12.83;;
69523;SDS011;56723;42.694;23.286;2023-04-03T07:06:57;21.20;;;14.07;;
69523;SDS011;56723;42.694;23.286;2023-04-03T07:09:24;20.53;;;13.73;;
69523;SDS011;56723;42.694;23.286;2023-04-03T07:11:51;18.03;;;11.80;;
69523;SDS011;56723;42.694;23.286;2023-04-03T07:14:18;16.30;;;9.43;;
69523;SDS011;56723;42.694;23.286;2023-04-03T07:16:45;11.43;;;6.83;;
69523;SDS011;56723;42.694;23.286;2023-04-03T07:19:12;15.97;;;9.90;;
69523;SDS011;56723;42.694;23.286;2023-04-03T07:21:39;13.53;;;8.57;;
69523;SDS011;56723;42.694;23.286;2023-04-03T07:24:08;14.57;;;7.82;;
69523;SDS011;56723;42.694;23.286;2023-04-03T07:26:41;12.70;;;7.37;;
69523;SDS011;56723;42.694;23.286;2023-04-03T07:29:08;12.13;;;6.83;;
69523;SDS011;56723;42.694;23.286;2023-04-03T07:31:35;13.00;;;8.20;;
69523;SDS011;56723;42.694;23.286;2023-04-03T07:34:02;13.83;;;7.53;;
69523;SDS011;56723;42.694;23.286;2023-04-03T07:36:29;11.67;;;7.93;;
69523;SDS011;56723;42.694;23.286;2023-04-03T07:38:59;12.10;;;6.03;;
69523;SDS011;56723;42.694;23.286;2023-04-03T07:41:26;9.53;;;4.73;;
69523;SDS011;56723;42.694;23.286;2023-04-03T07:43:54;9.77;;;5.03;;
69523;SDS011;56723;42.694;23.286;2023-04-03T07:46:23;8.40;;;5.00;;
69523;SDS011;56723;42.694;23.286;2023-04-03T07:48:50;8.57;;;4.93;;
69523;SDS011;56723;42.694;23.286;2023-04-03T07:51:17;8.43;;;4.37;;
69523;SDS011;56723;42.694;23.286;2023-04-03T07:53:45;9.53;;;4.97;;
69523;SDS011;56723;42.694;23.286;2023-04-03T07:56:12;9.47;;;4.97;;
69523;SDS011;56723;42.694;23.286;2023-04-03T07:58:39;6.97;;;4.37;;
69523;SDS011;56723;42.694;23.286;2023-04-03T08:01:06;7.37;;;3.77;;
69523;SDS011;56723;42.694;23.286;2023-04-03T08:03:33;8.63;;;3.80;;
69523;SDS011;56723;42.694;23.286;2023-04-03T08:06:02;8.73;;;4.70;;
69523;SDS011;56723;42.694;23.286;2023-04-03T08:08:32;8.60;;;4.60;;
69523;SDS011;56723;42.694;23.286;2023-04-03T08:11:00;8.93;;;5.07;;
69523;SDS011;56723;42.694;23.286;2023-04-03T08:13:29;11.50;;;5.75;;
69523;SDS011;56723;42.694;23.286;2023-04-03T08:15:57;11.70;;;5.83;;
69523;SDS011;56723;42.694;23.286;2023-04-03T08:18:25;13.35;;;7.25;;
69523;SDS011;56723;42.694;23.286;2023-04-03T08:20:53;15.00;;;8.70;;
69523;SDS011;56723;42.694;23.286;2023-04-03T08:23:20;13.50;;;8.53;;
69523;SDS011;56723;42.694;23.286;2023-04-03T08:25:47;11.43;;;7.27;;
69523;SDS011;56723;42.694;23.286;2023-04-03T08:28:14;11.38;;;7.22;;
69523;SDS011;56723;42.694;23.286;2023-04-03T08:30:41;13.77;;;9.43;;
69523;SDS011;56723;42.694;23.286;2023-04-03T08:33:09;13.55;;;8.52;;
69523;SDS011;56723;42.694;23.286;2023-04-03T08:35:40;20.00;;;10.23;;
69523;SDS011;56723;42.694;23.286;2023-04-03T08:38:09;18.17;;;9.98;;
69523;SDS011;56723;42.694;23.286;2023-04-03T08:40:37;15.63;;;8.30;;
69523;SDS011;56723;42.694;23.286;2023-04-03T08:45:45;15.13;;;7.85;;
69523;SDS011;56723;42.694;23.286;2023-04-03T08:48:19;20.83;;;10.35;;
69523;SDS011;56723;42.694;23.286;2023-04-03T08:50:56;15.32;;;8.70;;
69523;SDS011;56723;42.694;23.286;2023-04-03T08:53:29;17.75;;;8.25;;
69523;SDS011;56723;42.694;23.286;2023-04-03T08:56:02;12.02;;;8.82;;
69523;SDS011;56723;42.694;23.286;2023-04-03T08:58:57;14.32;;;9.23;;
69523;SDS011;56723;42.694;23.286;2023-04-03T09:01:29;14.88;;;8.15;;
69523;SDS011;56723;42.694;23.286;2023-04-03T09:04:00;14.93;;;6.88;;
69523;SDS011;56723;42.694;23.286;2023-04-03T09:06:31;12.18;;;7.60;;
69523;SDS011;56723;42.694;23.286;2023-04-03T09:14:35;15.10;;;9.05;;
69523;SDS011;56723;42.694;23.286;2023-04-03T09:17:07;13.75;;;9.57;;
69523;SDS011;56723;42.694;23.286;2023-04-03T09:19:38;14.85;;;9.55;;
69523;SDS011;56723;42.694;23.286;2023-04-03T09:24:47;15.55;;;9.00;;
69523;SDS011;56723;42.694;23.286;2023-04-03T09:27:23;14.15;;;9.93;;
69523;SDS011;56723;42.694;23.286;2023-04-03T09:29:52;15.43;;;8.73;;
69523;SDS011;56723;42.694;23.286;2023-04-03T09:32:26;16.35;;;9.40;;
69523;SDS011;56723;42.694;23.286;2023-04-03T09:37:58;16.20;;;8.27;;
69523;SDS011;56723;42.694;23.286;2023-04-03T09:45:54;14.52;;;7.60;;
69523;SDS011;56723;42.694;23.286;2023-04-03T09:48:26;12.35;;;8.07;;
69523;SDS011;56723;42.694;23.286;2023-04-03T09:50:55;15.35;;;8.48;;
69523;SDS011;56723;42.694;23.286;2023-04-03T09:53:41;14.75;;;9.02;;
69523;SDS011;56723;42.694;23.286;2023-04-03T09:58:44;10.57;;;7.95;;
69523;SDS011;56723;42.694;23.286;2023-04-03T10:06:51;16.10;;;8.27;;
69523;SDS011;56723;42.694;23.286;2023-04-03T10:09:22;13.77;;;7.30;;
69523;SDS011;56723;42.694;23.286;2023-04-03T10:14:39;10.45;;;6.13;;
69523;SDS011;56723;42.694;23.286;2023-04-03T10:23:17;8.85;;;5.28;;
69523;SDS011;56723;42.694;23.286;2023-04-03T10:28:35;8.45;;;5.05;;
69523;SDS011;56723;42.694;23.286;2023-04-03T10:34:23;11.70;;;5.60;;
69523;SDS011;56723;42.694;23.286;2023-04-03T10:39:38;9.55;;;5.45;;
69523;SDS011;56723;42.694;23.286;2023-04-03T10:45:22;10.88;;;3.80;;
69523;SDS011;56723;42.694;23.286;2023-04-03T10:56:44;8.30;;;3.42;;
69523;SDS011;56723;42.694;23.286;2023-04-03T11:02:31;6.35;;;3.03;;
69523;SDS011;56723;42.694;23.286;2023-04-03T11:05:04;5.15;;;2.13;;
69523;SDS011;56723;42.694;23.286;2023-04-03T11:07:42;5.88;;;2.20;;
69523;SDS011;56723;42.694;23.286;2023-04-03T11:10:30;3.25;;;2.20;;
69523;SDS011;56723;42.694;23.286;2023-04-03T11:13:24;5.95;;;2.38;;
69523;SDS011;56723;42.694;23.286;2023-04-03T11:15:57;4.68;;;2.13;;
69523;SDS011;56723;42.694;23.286;2023-04-03T11:18:59;4.57;;;2.08;;
69523;SDS011;56723;42.694;23.286;2023-04-03T11:21:27;5.53;;;1.77;;
69523;SDS011;56723;42.694;23.286;2023-04-03T11:24:11;3.72;;;2.22;;
69523;SDS011;56723;42.694;23.286;2023-04-03T11:26:47;6.38;;;2.13;;
69523;SDS011;56723;42.694;23.286;2023-04-03T11:29:21;4.50;;;2.10;;
69523;SDS011;56723;42.694;23.286;2023-04-03T11:32:09;3.28;;;1.75;;
69523;SDS011;56723;42.694;23.286;2023-04-03T11:34:49;2.55;;;1.48;;
69523;SDS011;56723;42.694;23.286;2023-04-03T11:37:39;3.33;;;1.92;;
69523;SDS011;56723;42.694;23.286;2023-04-03T11:42:52;2.50;;;1.00;;
69523;SDS011;56723;42.694;23.286;2023-04-03T11:55:55;2.13;;;1.50;;
69523;SDS011;56723;42.694;23.286;2023-04-03T11:58:27;4.00;;;2.28;;
69523;SDS011;56723;42.694;23.286;2023-04-03T12:01:03;11.15;;;5.90;;
69523;SDS011;56723;42.694;23.286;2023-04-03T12:08:47;2.40;;;1.27;;
69523;SDS011;56723;42.694;23.286;2023-04-03T12:41:23;2.93;;;2.17;;
69523;SDS011;56723;42.694;23.286;2023-04-03T12:46:49;3.03;;;2.17;;
69523;SDS011;56723;42.694;23.286;2023-04-03T12:49:26;3.00;;;2.67;;
69523;SDS011;56723;42.694;23.286;2023-04-03T12:51:57;2.70;;;2.17;;
69523;SDS011;56723;42.694;23.286;2023-04-03T12:57:09;3.90;;;3.50;;
69523;SDS011;56723;42.694;23.286;2023-04-03T12:59:43;5.57;;;3.80;;
69523;SDS011;56723;42.694;23.286;2023-04-03T13:02:20;6.23;;;4.07;;
69523;SDS011;56723;42.694;23.286;2023-04-03T13:04:51;4.53;;;3.70;;
69523;SDS011;56723;42.694;23.286;2023-04-03T13:07:24;5.27;;;4.03;;
69523;SDS011;56723;42.694;23.286;2023-04-03T13:12:34;6.73;;;4.73;;
69523;SDS011;56723;42.694;23.286;2023-04-03T13:15:12;6.40;;;5.67;;
69523;SDS011;56723;42.694;23.286;2023-04-03T13:17:43;6.40;;;4.67;;
69523;SDS011;56723;42.694;23.286;2023-04-03T13:25:20;7.90;;;6.27;;
69523;SDS011;56723;42.694;23.286;2023-04-03T13:27:49;10.07;;;6.40;;
69523;SDS011;56723;42.694;23.286;2023-04-03T13:30:24;7.83;;;6.37;;
69523;SDS011;56723;42.694;23.286;2023-04-03T13:32:52;8.45;;;7.05;;
69523;SDS011;56723;42.694;23.286;2023-04-03T13:35:39;12.13;;;8.30;;
69523;SDS011;56723;42.694;23.286;2023-04-03T13:40:50;12.43;;;9.27;;
69523;SDS011;56723;42.694;23.286;2023-04-03T13:43:21;8.43;;;7.27;;
69523;SDS011;56723;42.694;23.286;2023-04-03T13:45:54;10.03;;;7.60;;
69523;SDS011;56723;42.694;23.286;2023-04-03T13:48:34;8.80;;;7.13;;
69523;SDS011;56723;42.694;23.286;2023-04-03T13:51:16;9.97;;;7.33;;
69523;SDS011;56723;42.694;23.286;2023-04-03T13:56:35;8.70;;;6.07;;
69523;SDS011;56723;42.694;23.286;2023-04-03T14:04:22;7.00;;;6.30;;
69523;SDS011;56723;42.694;23.286;2023-04-03T14:06:52;6.73;;;6.10;;
69523;SDS011;56723;42.694;23.286;2023-04-03T14:09:20;7.20;;;5.97;;
69523;SDS011;56723;42.694;23.286;2023-04-03T14:11:49;9.13;;;6.65;;
69523;SDS011;56723;42.694;23.286;2023-04-03T14:14:24;11.13;;;6.33;;
69523;SDS011;56723;42.694;23.286;2023-04-03T14:16:59;10.33;;;9.10;;
69523;SDS011;56723;42.694;23.286;2023-04-03T14:19:34;13.10;;;10.97;;
69523;SDS011;56723;42.694;23.286;2023-04-03T14:24:48;9.80;;;8.77;;
69523;SDS011;56723;42.694;23.286;2023-04-03T14:29:50;10.47;;;9.13;;
69523;SDS011;56723;42.694;23.286;2023-04-03T14:32:19;11.63;;;10.43;;
69523;SDS011;56723;42.694;23.286;2023-04-03T14:37:17;11.73;;;10.53;;
69523;SDS011;56723;42.694;23.286;2023-04-03T14:39:46;11.83;;;10.67;;
69523;SDS011;56723;42.694;23.286;2023-04-03T14:42:16;11.70;;;10.50;;
69523;SDS011;56723;42.694;23.286;2023-04-03T14:44:45;14.27;;;12.03;;
69523;SDS011;56723;42.694;23.286;2023-04-03T14:47:13;11.60;;;9.47;;
69523;SDS011;56723;42.694;23.286;2023-04-03T14:49:56;9.07;;;8.17;;
69523;SDS011;56723;42.694;23.286;2023-04-03T14:52:29;11.37;;;8.70;;
69523;SDS011;56723;42.694;23.286;2023-04-03T14:54:58;9.87;;;7.30;;
69523;SDS011;56723;42.694;23.286;2023-04-03T14:57:27;10.48;;;8.18;;
69523;SDS011;56723;42.694;23.286;2023-04-03T14:59:56;7.93;;;7.15;;
69523;SDS011;56723;42.694;23.286;2023-04-03T15:02:30;8.80;;;6.20;;
69523;SDS011;56723;42.694;23.286;2023-04-03T15:05:00;8.23;;;6.43;;
69523;SDS011;56723;42.694;23.286;2023-04-03T15:07:32;6.73;;;5.97;;
69523;SDS011;56723;42.694;23.286;2023-04-03T15:10:05;7.07;;;5.30;;
69523;SDS011;56723;42.694;23.286;2023-04-03T15:12:41;4.67;;;4.27;;
69523;SDS011;56723;42.694;23.286;2023-04-03T15:15:09;3.83;;;3.20;;
69523;SDS011;56723;42.694;23.286;2023-04-03T15:17:36;4.70;;;4.30;;
69523;SDS011;56723;42.694;23.286;2023-04-03T15:20:10;5.63;;;4.77;;
69523;SDS011;56723;42.694;23.286;2023-04-03T15:22:39;3.77;;;3.40;;
69523;SDS011;56723;42.694;23.286;2023-04-03T15:25:07;4.37;;;3.97;;
69523;SDS011;56723;42.694;23.286;2023-04-03T15:27:35;4.77;;;3.37;;
69523;SDS011;56723;42.694;23.286;2023-04-03T15:30:04;3.90;;;3.50;;
69523;SDS011;56723;42.694;23.286;2023-04-03T15:32:32;6.03;;;3.40;;
69523;SDS011;56723;42.694;23.286;2023-04-03T15:35:01;3.80;;;3.40;;
69523;SDS011;56723;42.694;23.286;2023-04-03T15:37:28;3.93;;;3.30;;
69523;SDS011;56723;42.694;23.286;2023-04-03T15:39:55;4.77;;;4.27;;
69523;SDS011;56723;42.694;23.286;2023-04-03T15:42:22;4.10;;;3.63;;
69523;SDS011;56723;42.694;23.286;2023-04-03T15:44:49;5.17;;;4.63;;
69523;SDS011;56723;42.694;23.286;2023-04-03T15:47:16;4.17;;;3.87;;
69523;SDS011;56723;42.694;23.286;2023-04-03T15:49:44;5.00;;;4.07;;
69523;SDS011;56723;42.694;23.286;2023-04-03T15:52:11;6.90;;;4.20;;
69523;SDS011;56723;42.694;23.286;2023-04-03T15:54:38;4.10;;;3.80;;
69523;SDS011;56723;42.694;23.286;2023-04-03T15:57:05;4.60;;;4.03;;
69523;SDS011;56723;42.694;23.286;2023-04-03T15:59:32;3.37;;;3.07;;
69523;SDS011;56723;42.694;23.286;2023-04-03T16:01:59;6.57;;;4.80;;
69523;SDS011;56723;42.694;23.286;2023-04-03T16:04:29;5.90;;;4.83;;
69523;SDS011;56723;42.694;23.286;2023-04-03T16:06:56;6.73;;;4.93;;
69523;SDS011;56723;42.694;23.286;2023-04-03T16:09:23;5.17;;;4.67;;
69523;SDS011;56723;42.694;23.286;2023-04-03T16:11:50;6.83;;;5.50;;
69523;SDS011;56723;42.694;23.286;2023-04-03T16:14:18;7.23;;;5.60;;
69523;SDS011;56723;42.694;23.286;2023-04-03T16:16:45;9.53;;;7.33;;
69523;SDS011;56723;42.694;23.286;2023-04-03T16:19:12;6.80;;;6.20;;
69523;SDS011;56723;42.694;23.286;2023-04-03T16:21:39;6.40;;;5.20;;
69523;SDS011;56723;42.694;23.286;2023-04-03T16:24:07;8.33;;;7.13;;
69523;SDS011;56723;42.694;23.286;2023-04-03T16:26:35;7.87;;;7.10;;
69523;SDS011;56723;42.694;23.286;2023-04-03T16:29:02;7.83;;;7.03;;
69523;SDS011;56723;42.694;23.286;2023-04-03T16:31:29;12.40;;;9.10;;
69523;SDS011;56723;42.694;23.286;2023-04-03T16:33:59;15.60;;;10.37;;
69523;SDS011;56723;42.694;23.286;2023-04-03T16:36:27;14.27;;;11.68;;
69523;SDS011;56723;42.694;23.286;2023-04-03T16:38:54;26.63;;;19.83;;
69523;SDS011;56723;42.694;23.286;2023-04-03T16:41:21;58.80;;;35.43;;
69523;SDS011;56723;42.694;23.286;2023-04-03T16:43:48;26.00;;;18.13;;
69523;SDS011;56723;42.694;23.286;2023-04-03T16:46:17;15.87;;;12.43;;
69523;SDS011;56723;42.694;23.286;2023-04-03T16:48:44;80.40;;;44.43;;
69523;SDS011;56723;42.694;23.286;2023-04-03T16:51:12;40.37;;;27.97;;
69523;SDS011;56723;42.694;23.286;2023-04-03T16:53:39;37.00;;;28.87;;
69523;SDS011;56723;42.694;23.286;2023-04-03T16:56:06;19.97;;;15.83;;
69523;SDS011;56723;42.694;23.286;2023-04-03T16:58:35;15.68;;;11.93;;
69523;SDS011;56723;42.694;23.286;2023-04-03T17:01:12;10.63;;;8.53;;
69523;SDS011;56723;42.694;23.286;2023-04-03T17:03:44;13.40;;;10.83;;
69523;SDS011;56723;42.694;23.286;2023-04-03T17:06:12;11.13;;;10.03;;
69523;SDS011;56723;42.694;23.286;2023-04-03T17:08:45;10.67;;;8.57;;
69523;SDS011;56723;42.694;23.286;2023-04-03T17:11:25;9.73;;;8.47;;
69523;SDS011;56723;42.694;23.286;2023-04-03T17:13:53;10.60;;;7.97;;
69523;SDS011;56723;42.694;23.286;2023-04-03T17:16:20;6.90;;;6.20;;
69523;SDS011;56723;42.694;23.286;2023-04-03T17:18:48;7.57;;;5.50;;
69523;SDS011;56723;42.694;23.286;2023-04-03T17:21:16;6.87;;;5.77;;
69523;SDS011;56723;42.694;23.286;2023-04-03T17:23:44;7.50;;;5.87;;
69523;SDS011;56723;42.694;23.286;2023-04-03T17:26:15;7.63;;;6.33;;
69523;SDS011;56723;42.694;23.286;2023-04-03T17:28:42;8.80;;;5.73;;
69523;SDS011;56723;42.694;23.286;2023-04-03T17:31:12;23.42;;;14.05;;
69523;SDS011;56723;42.694;23.286;2023-04-03T17:33:39;59.03;;;31.27;;
69523;SDS011;56723;42.694;23.286;2023-04-03T17:36:06;33.27;;;18.30;;
69523;SDS011;56723;42.694;23.286;2023-04-03T17:38:33;12.93;;;8.37;;
69523;SDS011;56723;42.694;23.286;2023-04-03T17:41:02;26.77;;;14.40;;
69523;SDS011;56723;42.694;23.286;2023-04-03T17:43:31;35.50;;;20.13;;
69523;SDS011;56723;42.694;23.286;2023-04-03T17:46:00;43.10;;;23.20;;
69523;SDS011;56723;42.694;23.286;2023-04-03T17:48:31;31.33;;;17.67;;
69523;SDS011;56723;42.694;23.286;2023-04-03T17:51:06;13.30;;;8.23;;